TONO2: Salt Fork Arkansas R., Tonkawa, OK

Data processed at Fri Dec 08 2017 23:36


All information presented herein is the property of the government of the United States of America and may be revised or deleted at any time without prior notice.
Dissemination of this information without the expressed written consent of the Public Affairs Office, Tulsa District U.S. Army Corps of Engineers is strictly prohibited.
These data are gathered electronically and, as presented, have not undergone any form of quality control. These data are not guaranteed to be valid or correct.
Go to home page.
Go to station list.

Upstream stations:

Downstream station:
Previous Day
Next Day
Current Day
    
SHEF ID:       TONO2     Salt Fork Arkansas River at Tonk
STATION TYPE:  

               PRECIP     STAGE  STAGE(2)  RIV-FLOW  BAT-LOAD
                   in        ft        ft       cfs      volt
              Ccp-Rev   Ccp-Rev   Ccp-Rev   Ccp-Rev   Ccp-Rev
(US/Central)
12/06 00:00      0.00      3.39      3.40       128     12.57
12/06 01:00      0.00      3.38      3.40       126     12.49
12/06 02:00      0.00      3.38      3.31       126     12.49
12/06 03:00      0.00      3.39      3.37       128     12.41
12/06 04:00      0.00      3.40      3.41       130     12.41
12/06 05:00      0.00      3.42      3.34       135     12.41
12/06 06:00      0.00      3.44      3.37       139     12.33
12/06 07:00      0.00      3.47      3.39       146     12.33
12/06 08:00      0.00      3.51      3.54       155     12.25
12/06 09:00      0.00      3.55      3.48       165      ----
12/06 10:00      0.00      3.56      3.57       168     12.65
12/06 11:00      0.00      3.60      3.57       178     13.92
12/06 12:00      0.00      3.63      3.61       186     13.68
12/06 13:00      0.00      3.64      3.63       189     13.76
12/06 14:00      0.00      3.65      3.65       191     13.60
12/06 15:00      0.00      3.66      3.64       194     13.37
12/06 16:00      0.00      3.68      3.63       200     13.68
12/06 17:00      0.00      3.69      3.68       202     13.44
12/06 18:00      0.00      3.69      3.68       202     13.05
12/06 19:00      0.00      3.69      3.64       202     12.73
12/06 20:00      0.00      3.68      3.61       200     12.65
12/06 21:00      0.00      3.66      3.61       194     12.65
12/06 22:00      0.00      3.66      3.64       194     12.57
12/06 23:00      0.00      3.64      3.66       189     12.57